Time;durP1;ratioP1;P1;durP2;ratioP2;P2;SDS_P1;SDS_P2;PMS_P1;PMS_P2;Temp;Humidity;BMP_temperature;BMP_pressure;BME280_temperature;BME280_humidity;BME280_pressure;Samples;Min_cycle;Max_cycle;Signal;HPM_P1;HPM_P2
2022/12/12 00:00:23;;;;;;;;;;;0.80;99.90;;;;;;5136525;27;20231;-72
2022/12/12 00:02:49;;;;;;;;;;;0.80;99.90;;;;;;5095208;28;20040;-72
2022/12/12 00:05:15;;;;;;;;;;;0.80;99.90;;;;;;5100231;28;19928;-73
2022/12/12 00:07:41;;;;;;;;;;;0.80;99.90;;;;;;5097644;28;20630;-75
2022/12/12 00:10:07;;;;;;;;;;;0.80;99.90;;;;;;5097183;28;20003;-72
2022/12/12 00:12:33;;;;;;;;;;;0.80;99.90;;;;;;5097021;28;20007;-72
2022/12/12 00:14:58;;;;;;;;;;;0.80;99.90;;;;;;5113745;28;19959;-72
2022/12/12 00:17:23;;;;;;;;;;;0.80;99.90;;;;;;5106258;28;19920;-73
2022/12/12 00:19:49;;;;;;;;;;;0.70;99.90;;;;;;5091868;27;19908;-72
2022/12/12 00:22:15;;;;;;;;;;;0.70;99.90;;;;;;5113414;27;19919;-72
2022/12/12 00:24:40;;;;;;;;;;;0.70;99.90;;;;;;5112630;28;19998;-72
2022/12/12 00:27:06;;;;;;;;;;;0.70;99.90;;;;;;5103615;27;19963;-73
2022/12/12 00:29:31;;;;;;;;;;;0.70;99.90;;;;;;5106574;28;19912;-72
2022/12/12 00:31:57;;;;;;;;;;;0.70;99.90;;;;;;5097941;28;20003;-72
2022/12/12 00:34:22;;;;;;;;;;;0.70;99.90;;;;;;5095050;28;19912;-76
2022/12/12 00:36:50;;;;;;;;;;;0.70;99.90;;;;;;5107766;28;19912;-74
2022/12/12 00:39:16;;;;;;;;;;;0.70;99.90;;;;;;5144439;27;19920;-73
2022/12/12 00:41:41;;;;;;;;;;;0.70;99.90;;;;;;5094117;28;19919;-72
2022/12/12 00:44:07;;;;;;;;;;;0.70;99.90;;;;;;5098870;28;20368;-75
2022/12/12 00:46:32;;;;;;;;;;;0.70;99.90;;;;;;5095548;28;20379;-72
2022/12/12 00:48:58;;;;;;;;;;;0.60;99.90;;;;;;5100099;28;19987;-73
2022/12/12 00:51:25;;;;;;;;;;;0.60;99.90;;;;;;5098805;28;19922;-75
2022/12/12 00:53:51;;;;;;;;;;;0.60;99.90;;;;;;5097575;28;19917;-73
2022/12/12 00:56:17;;;;;;;;;;;0.70;99.90;;;;;;5106979;28;19915;-72
2022/12/12 00:58:43;;;;;;;;;;;0.60;99.90;;;;;;5101059;28;19912;-72
2022/12/12 01:01:13;;;;;;;;;;;0.70;99.90;;;;;;5105040;28;19908;-72
2022/12/12 01:03:39;;;;;;;;;;;0.60;99.90;;;;;;5098833;28;19908;-72
2022/12/12 01:06:05;;;;;;;;;;;0.60;99.90;;;;;;5098330;28;20219;-73
2022/12/12 01:08:31;;;;;;;;;;;0.60;99.90;;;;;;5100150;28;19940;-75
2022/12/12 01:10:57;;;;;;;;;;;0.70;99.90;;;;;;5096742;28;19959;-72
2022/12/12 01:13:22;;;;;;;;;;;0.70;99.90;;;;;;5097708;28;20388;-75
2022/12/12 01:15:48;;;;;;;;;;;0.70;99.90;;;;;;5102098;28;19908;-73
2022/12/12 01:18:14;;;;;;;;;;;0.60;99.90;;;;;;5109121;28;19934;-73
2022/12/12 01:20:40;;;;;;;;;;;0.60;99.90;;;;;;5095667;28;20215;-72
2022/12/12 01:23:05;;;;;;;;;;;0.60;99.90;;;;;;5101118;28;19912;-72
2022/12/12 01:25:31;;;;;;;;;;;0.70;99.90;;;;;;5101169;28;19919;-76
2022/12/12 01:27:57;;;;;;;;;;;0.70;99.90;;;;;;5093320;27;19912;-72
2022/12/12 01:30:23;;;;;;;;;;;0.70;99.90;;;;;;5094168;27;20115;-72
2022/12/12 01:32:48;;;;;;;;;;;0.70;99.90;;;;;;5104972;28;20023;-75
2022/12/12 01:35:14;;;;;;;;;;;0.60;99.90;;;;;;5101617;28;20207;-72
2022/12/12 01:37:40;;;;;;;;;;;0.60;99.90;;;;;;5104163;28;19955;-73
2022/12/12 01:40:06;;;;;;;;;;;0.70;99.90;;;;;;5095190;28;19912;-72
2022/12/12 01:42:32;;;;;;;;;;;0.70;99.90;;;;;;5105042;28;20310;-75
2022/12/12 01:44:58;;;;;;;;;;;0.60;99.90;;;;;;5099721;28;19977;-73
2022/12/12 01:47:24;;;;;;;;;;;0.60;99.90;;;;;;5114321;28;19916;-73
2022/12/12 01:49:53;;;;;;;;;;;0.60;99.90;;;;;;5104869;28;20240;-72
2022/12/12 01:52:21;;;;;;;;;;;0.60;99.90;;;;;;5098674;28;20326;-73
2022/12/12 01:54:50;;;;;;;;;;;0.60;99.90;;;;;;5094991;28;20481;-72
2022/12/12 01:57:19;;;;;;;;;;;0.60;99.90;;;;;;5102446;28;19908;-72
2022/12/12 01:59:45;;;;;;;;;;;0.60;99.90;;;;;;5106026;28;19915;-73
2022/12/12 02:02:11;;;;;;;;;;;0.60;99.90;;;;;;5101971;28;19927;-72
2022/12/12 02:04:36;;;;;;;;;;;0.60;99.90;;;;;;5094883;28;20204;-73
2022/12/12 02:07:02;;;;;;;;;;;0.50;99.90;;;;;;5108702;28;20325;-73
2022/12/12 02:09:28;;;;;;;;;;;0.60;99.90;;;;;;5103916;28;20261;-72
2022/12/12 02:11:54;;;;;;;;;;;0.60;99.90;;;;;;5109341;28;19982;-72
2022/12/12 02:14:26;;;;;;;;;;;0.60;99.90;;;;;;5109546;28;19911;-73
2022/12/12 02:16:54;;;;;;;;;;;0.70;99.90;;;;;;5108476;28;20006;-73
2022/12/12 02:19:46;;;;;;;;;;;0.60;99.90;;;;;;5097882;28;19930;-72
2022/12/12 02:22:17;;;;;;;;;;;0.60;99.90;;;;;;5079716;28;19908;-73
2022/12/12 02:24:43;;;;;;;;;;;0.70;99.90;;;;;;5100125;28;19931;-72
2022/12/12 02:27:24;;;;;;;;;;;0.60;99.90;;;;;;5098457;28;20287;-72
2022/12/12 02:30:04;;;;;;;;;;;0.60;99.90;;;;;;5098346;27;19947;-73
2022/12/12 02:32:42;;;;;;;;;;;0.60;99.90;;;;;;5105737;27;19919;-72
2022/12/12 02:35:10;;;;;;;;;;;0.50;99.90;;;;;;5106904;28;20289;-72
2022/12/12 02:37:59;;;;;;;;;;;0.50;99.90;;;;;;5097573;28;20003;-72
2022/12/12 02:40:24;;;;;;;;;;;0.50;99.90;;;;;;5065581;28;19951;-72
2022/12/12 02:42:59;;;;;;;;;;;0.60;99.90;;;;;;5106924;28;19951;-75
2022/12/12 02:45:25;;;;;;;;;;;0.50;99.90;;;;;;5114999;28;19920;-72
2022/12/12 02:47:53;;;;;;;;;;;0.50;99.90;;;;;;5109339;28;19911;-73
2022/12/12 02:50:20;;;;;;;;;;;0.50;99.90;;;;;;5099631;28;19950;-74
2022/12/12 02:52:46;;;;;;;;;;;0.50;99.90;;;;;;5110300;28;20314;-72
2022/12/12 02:55:13;;;;;;;;;;;0.50;99.90;;;;;;5103136;28;20027;-72
2022/12/12 02:57:40;;;;;;;;;;;0.50;99.90;;;;;;5098853;28;20354;-73
2022/12/12 03:00:14;;;;;;;;;;;0.50;99.90;;;;;;5143968;27;19950;-72
2022/12/12 03:08:48;;;;;;;;;;;0.50;99.90;;;;;;5054758;28;19978;-73
2022/12/12 03:11:19;;;;;;;;;;;0.50;99.90;;;;;;5040610;28;19928;-72
2022/12/12 03:13:50;;;;;;;;;;;0.50;99.90;;;;;;5039182;28;19925;-72
2022/12/12 03:16:27;;;;;;;;;;;0.50;99.90;;;;;;5054314;28;20209;-73
2022/12/12 03:18:52;;;;;;;;;;;0.50;99.90;;;;;;5053280;28;20371;-73
2022/12/12 03:21:36;;;;;;;;;;;0.50;99.90;;;;;;5038442;28;19959;-75
2022/12/12 03:24:22;;;;;;;;;;;0.40;99.90;;;;;;5031264;28;19967;-72
2022/12/12 03:26:53;;;;;;;;;;;0.40;99.90;;;;;;5049052;28;20250;-73
2022/12/12 03:29:21;;;;;;;;;;;0.40;99.90;;;;;;5039863;28;19913;-73
2022/12/12 03:31:49;;;;;;;;;;;0.40;99.90;;;;;;5021130;28;20337;-72
2022/12/12 03:34:18;;;;;;;;;;;0.40;99.90;;;;;;5041101;28;19917;-73
2022/12/12 03:36:55;;;;;;;;;;;0.40;99.90;;;;;;5048414;28;19920;-72
2022/12/12 03:39:32;;;;;;;;;;;0.40;99.90;;;;;;5040747;27;19966;-73
2022/12/12 03:42:04;;;;;;;;;;;0.40;99.90;;;;;;5106606;28;19968;-73
2022/12/12 03:44:50;;;;;;;;;;;0.40;99.90;;;;;;5097756;28;20003;-72
2022/12/12 03:47:22;;;;;;;;;;;0.40;99.90;;;;;;5098412;28;19912;-74
2022/12/12 03:50:08;;;;;;;;;;;0.40;99.90;;;;;;5096874;28;19915;-74
2022/12/12 03:52:36;;;;;;;;;;;0.30;99.90;;;;;;5108184;28;19916;-76
2022/12/12 03:55:03;;;;;;;;;;;0.40;99.90;;;;;;5100638;28;19961;-75
2022/12/12 03:57:34;;;;;;;;;;;0.30;99.90;;;;;;5113303;28;19916;-73
2022/12/12 04:00:06;;;;;;;;;;;0.30;99.90;;;;;;5101642;28;19935;-73
2022/12/12 04:02:37;;;;;;;;;;;0.30;99.90;;;;;;5109963;28;19915;-73
2022/12/12 04:05:12;;;;;;;;;;;0.30;99.90;;;;;;5098940;28;19955;-76
2022/12/12 04:07:40;;;;;;;;;;;0.30;99.90;;;;;;5097577;28;19974;-73
2022/12/12 04:12:59;;;;;;;;;;;0.30;99.90;;;;;;5096667;28;19926;-73
2022/12/12 04:15:34;;;;;;;;;;;0.30;99.90;;;;;;5104345;28;20277;-72
2022/12/12 04:18:06;;;;;;;;;;;0.30;99.90;;;;;;5101199;28;20326;-73
2022/12/12 04:23:28;;;;;;;;;;;0.30;99.90;;;;;;5096699;28;19919;-72
2022/12/12 04:28:59;;;;;;;;;;;0.20;99.90;;;;;;5107305;28;20329;-72
2022/12/12 04:31:26;;;;;;;;;;;0.20;99.90;;;;;;5097091;28;19948;-72
2022/12/12 04:33:56;;;;;;;;;;;0.20;99.90;;;;;;5095983;28;19916;-75
2022/12/12 04:36:22;;;;;;;;;;;0.20;99.90;;;;;;5096298;28;19908;-77
2022/12/12 04:38:48;;;;;;;;;;;0.20;99.90;;;;;;5090509;27;19922;-73
2022/12/12 04:41:15;;;;;;;;;;;0.10;99.90;;;;;;5123338;27;19920;-72
2022/12/12 04:43:42;;;;;;;;;;;0.00;99.90;;;;;;5104337;28;20298;-72
2022/12/12 04:46:15;;;;;;;;;;;0.00;99.90;;;;;;5112137;28;19915;-73
2022/12/12 04:48:49;;;;;;;;;;;-0.10;99.90;;;;;;5106394;28;19951;-73
2022/12/12 04:51:17;;;;;;;;;;;-0.20;99.90;;;;;;5099198;28;19912;-72
2022/12/12 04:53:45;;;;;;;;;;;-0.20;99.90;;;;;;5107629;28;19920;-73
2022/12/12 04:56:12;;;;;;;;;;;-0.30;99.90;;;;;;5104948;28;19919;-75
2022/12/12 04:58:38;;;;;;;;;;;-0.30;99.90;;;;;;5110567;28;19911;-73
2022/12/12 05:01:08;;;;;;;;;;;-0.40;99.90;;;;;;5109692;28;19923;-73
2022/12/12 05:03:39;;;;;;;;;;;-0.40;99.90;;;;;;5098476;28;20318;-72
2022/12/12 05:06:07;;;;;;;;;;;-0.50;99.90;;;;;;5097997;28;19957;-73
2022/12/12 05:08:59;;;;;;;;;;;-0.50;99.90;;;;;;5109045;28;19911;-75
2022/12/12 05:11:25;;;;;;;;;;;-0.60;99.90;;;;;;5100178;28;19916;-73
2022/12/12 05:13:50;;;;;;;;;;;-0.60;99.90;;;;;;5100079;28;19920;-72
2022/12/12 05:16:18;;;;;;;;;;;-0.60;99.90;;;;;;5100036;28;19916;-72
2022/12/12 05:18:45;;;;;;;;;;;-0.70;99.90;;;;;;5108520;28;20031;-75
2022/12/12 05:21:11;;;;;;;;;;;-0.80;99.90;;;;;;5107228;28;19912;-73
2022/12/12 05:23:36;;;;;;;;;;;-0.80;99.90;;;;;;5102335;28;19939;-72
2022/12/12 05:26:09;;;;;;;;;;;-0.80;99.90;;;;;;5111585;28;20038;-76
2022/12/12 05:28:35;;;;;;;;;;;-0.90;99.90;;;;;;5109038;28;19926;-72
2022/12/12 05:31:00;;;;;;;;;;;-0.90;99.90;;;;;;5100981;28;19908;-72
2022/12/12 05:33:26;;;;;;;;;;;-1.00;99.90;;;;;;5098998;28;19920;-72
2022/12/12 05:35:51;;;;;;;;;;;-1.10;99.90;;;;;;5111914;27;19915;-72
2022/12/12 05:38:17;;;;;;;;;;;-1.20;99.90;;;;;;5111049;28;19908;-72
2022/12/12 05:40:42;;;;;;;;;;;-1.20;99.90;;;;;;5111708;28;19918;-72
2022/12/12 05:43:08;;;;;;;;;;;-1.30;99.90;;;;;;5109856;28;19919;-75
2022/12/12 05:45:33;;;;;;;;;;;-1.40;99.90;;;;;;5109788;28;19958;-72
2022/12/12 05:47:59;;;;;;;;;;;-1.40;99.90;;;;;;5107760;28;19918;-72
2022/12/12 05:50:24;;;;;;;;;;;-1.40;99.90;;;;;;5105581;27;20278;-72
2022/12/12 05:52:50;;;;;;;;;;;-1.50;99.90;;;;;;5110191;28;19924;-75
2022/12/12 05:55:16;;;;;;;;;;;-1.50;99.90;;;;;;5106459;28;19920;-71
2022/12/12 05:57:41;;;;;;;;;;;-1.60;99.90;;;;;;5110490;28;19908;-72
2022/12/12 06:00:07;;;;;;;;;;;-1.60;99.90;;;;;;5103042;27;19924;-72
2022/12/12 06:02:33;;;;;;;;;;;-1.70;99.90;;;;;;5108906;28;20326;-75
2022/12/12 06:04:58;;;;;;;;;;;-1.70;99.90;;;;;;5108668;28;19920;-72
2022/12/12 06:07:24;;;;;;;;;;;-1.70;99.90;;;;;;5108340;28;19960;-72
2022/12/12 06:09:49;;;;;;;;;;;-1.70;99.90;;;;;;5103242;28;19912;-72
2022/12/12 06:12:15;;;;;;;;;;;-1.70;99.90;;;;;;5106008;28;19918;-72
2022/12/12 06:14:40;;;;;;;;;;;-1.60;99.90;;;;;;5094699;28;19927;-73
2022/12/12 06:17:06;;;;;;;;;;;-1.70;99.90;;;;;;5097669;28;20317;-72
2022/12/12 06:19:32;;;;;;;;;;;-1.80;99.90;;;;;;5094533;28;19912;-74
2022/12/12 06:21:57;;;;;;;;;;;-1.80;99.90;;;;;;5098184;28;19909;-72
2022/12/12 06:24:23;;;;;;;;;;;-1.90;99.90;;;;;;5094353;28;19916;-71
2022/12/12 06:26:48;;;;;;;;;;;-1.90;99.90;;;;;;5107376;28;19911;-72
2022/12/12 06:29:14;;;;;;;;;;;-2.00;99.90;;;;;;5150182;27;20210;-71
2022/12/12 06:31:40;;;;;;;;;;;-2.00;99.90;;;;;;5107870;28;19915;-75
2022/12/12 06:34:05;;;;;;;;;;;-2.10;99.90;;;;;;5107249;28;20397;-72
2022/12/12 06:36:31;;;;;;;;;;;-2.10;99.90;;;;;;5102890;28;19916;-72
2022/12/12 06:38:57;;;;;;;;;;;-2.10;99.90;;;;;;5112265;28;19908;-73
2022/12/12 06:41:24;;;;;;;;;;;-2.20;99.90;;;;;;5108817;28;20031;-73
2022/12/12 06:43:50;;;;;;;;;;;-2.20;99.90;;;;;;5099170;28;19966;-72
2022/12/12 06:46:20;;;;;;;;;;;-2.30;99.90;;;;;;5098269;28;19916;-73
2022/12/12 06:48:46;;;;;;;;;;;-2.20;99.90;;;;;;5113651;28;19915;-72
2022/12/12 06:51:16;;;;;;;;;;;-2.20;99.90;;;;;;5116385;28;19912;-72
2022/12/12 06:53:41;;;;;;;;;;;-2.20;99.90;;;;;;5099986;28;19920;-75
2022/12/12 06:56:15;;;;;;;;;;;-2.30;99.90;;;;;;5099050;28;19958;-72
2022/12/12 06:58:40;;;;;;;;;;;-2.30;99.90;;;;;;5102412;27;19919;-72
2022/12/12 07:01:06;;;;;;;;;;;-2.40;99.90;;;;;;5112089;27;20230;-74
2022/12/12 07:03:32;;;;;;;;;;;-2.40;99.90;;;;;;5112202;28;19945;-72
2022/12/12 07:05:58;;;;;;;;;;;-2.40;99.90;;;;;;5099750;28;20293;-74
2022/12/12 07:08:23;;;;;;;;;;;-2.40;99.90;;;;;;5108402;28;19914;-72
2022/12/12 07:10:49;;;;;;;;;;;-2.40;99.90;;;;;;5105832;27;19911;-72
2022/12/12 07:13:14;;;;;;;;;;;-2.50;99.90;;;;;;5117173;28;19973;-72
2022/12/12 07:15:40;;;;;;;;;;;-2.50;99.90;;;;;;5113675;28;19912;-76
2022/12/12 07:18:06;;;;;;;;;;;-2.50;99.90;;;;;;5109108;28;19920;-72
2022/12/12 07:20:32;;;;;;;;;;;-2.60;99.90;;;;;;5117483;28;19916;-72
2022/12/12 07:22:57;;;;;;;;;;;-2.60;99.90;;;;;;5109480;28;20363;-72
2022/12/12 07:25:23;;;;;;;;;;;-2.70;99.90;;;;;;5105749;28;19911;-72
2022/12/12 07:27:49;;;;;;;;;;;-2.70;99.90;;;;;;5098027;28;19914;-72
2022/12/12 07:30:14;;;;;;;;;;;-2.70;99.90;;;;;;5097785;28;19999;-73
2022/12/12 07:32:40;;;;;;;;;;;-2.80;99.90;;;;;;5096579;28;20309;-71
2022/12/12 07:35:06;;;;;;;;;;;-2.80;99.90;;;;;;5103646;28;19946;-72
2022/12/12 07:37:31;;;;;;;;;;;-2.80;99.90;;;;;;5102415;28;20199;-72
2022/12/12 07:39:57;;;;;;;;;;;-2.80;99.90;;;;;;5099101;28;19915;-72
2022/12/12 07:42:22;;;;;;;;;;;-2.80;99.90;;;;;;5144954;27;20298;-71
2022/12/12 07:44:49;;;;;;;;;;;-2.90;99.90;;;;;;5112290;28;20252;-75
2022/12/12 07:47:14;;;;;;;;;;;-2.90;99.90;;;;;;5114799;28;19915;-72
2022/12/12 07:49:40;;;;;;;;;;;-2.80;99.90;;;;;;5107882;28;20412;-74
2022/12/12 07:52:06;;;;;;;;;;;-2.90;99.90;;;;;;5108505;28;19964;-72
2022/12/12 07:54:31;;;;;;;;;;;-2.90;99.90;;;;;;5098042;28;19927;-72
2022/12/12 07:56:57;;;;;;;;;;;-2.90;99.90;;;;;;5109642;28;19912;-72
2022/12/12 07:59:23;;;;;;;;;;;-2.90;99.90;;;;;;5109225;28;19914;-75
2022/12/12 08:01:48;;;;;;;;;;;-2.90;99.90;;;;;;5095862;28;19935;-72
2022/12/12 08:04:14;;;;;;;;;;;-2.80;99.90;;;;;;5096972;28;20207;-74
2022/12/12 08:06:39;;;;;;;;;;;-2.80;99.90;;;;;;5098412;28;20317;-72
2022/12/12 08:09:05;;;;;;;;;;;-2.80;99.90;;;;;;5098194;28;20120;-73
2022/12/12 08:11:31;;;;;;;;;;;-2.80;99.90;;;;;;5107920;28;20280;-75
2022/12/12 08:13:56;;;;;;;;;;;-2.70;99.90;;;;;;5111481;28;20406;-73
2022/12/12 08:16:23;;;;;;;;;;;-2.70;99.90;;;;;;5105062;28;19995;-72
2022/12/12 08:18:49;;;;;;;;;;;-2.60;99.90;;;;;;5093628;27;19908;-71
2022/12/12 08:21:15;;;;;;;;;;;-2.50;99.90;;;;;;5106671;27;19916;-73
2022/12/12 08:23:41;;;;;;;;;;;-2.40;99.90;;;;;;5096895;28;19958;-74
2022/12/12 08:26:08;;;;;;;;;;;-2.40;99.90;;;;;;5105942;28;20361;-74
2022/12/12 08:28:33;;;;;;;;;;;-2.30;99.90;;;;;;5102023;28;19916;-73
2022/12/12 08:30:59;;;;;;;;;;;-2.30;99.90;;;;;;5095891;28;20366;-74
2022/12/12 08:33:25;;;;;;;;;;;-2.30;99.90;;;;;;5098571;28;19912;-72
2022/12/12 08:35:50;;;;;;;;;;;-2.20;99.90;;;;;;5099235;28;19946;-72
2022/12/12 08:38:16;;;;;;;;;;;-2.20;99.90;;;;;;5096260;28;20242;-75
2022/12/12 08:40:41;;;;;;;;;;;-2.20;99.90;;;;;;5107676;28;19999;-71
2022/12/12 08:43:08;;;;;;;;;;;-2.20;99.90;;;;;;5103779;28;20004;-75
2022/12/12 08:45:33;;;;;;;;;;;-2.20;99.90;;;;;;5109649;28;19920;-72
2022/12/12 08:47:59;;;;;;;;;;;-2.20;99.90;;;;;;5108030;28;19964;-72
2022/12/12 08:50:25;;;;;;;;;;;-2.10;99.90;;;;;;5109069;28;19916;-72
2022/12/12 08:52:50;;;;;;;;;;;-2.10;99.90;;;;;;5112641;27;19918;-71
2022/12/12 08:55:16;;;;;;;;;;;-2.10;99.90;;;;;;5100182;28;19912;-71
2022/12/12 08:57:41;;;;;;;;;;;-2.10;99.90;;;;;;5098188;27;19955;-75
2022/12/12 09:00:07;;;;;;;;;;;-2.10;99.90;;;;;;5105991;28;19912;-72
2022/12/12 09:02:33;;;;;;;;;;;-2.10;99.90;;;;;;5108958;28;19912;-71
2022/12/12 09:04:58;;;;;;;;;;;-2.00;99.90;;;;;;5113336;28;19912;-75
2022/12/12 09:07:24;;;;;;;;;;;-2.00;99.90;;;;;;5097881;28;19916;-74
2022/12/12 09:09:49;;;;;;;;;;;-1.90;99.90;;;;;;5111309;28;19914;-74
2022/12/12 09:12:15;;;;;;;;;;;-1.90;99.90;;;;;;5110119;28;19918;-72
2022/12/12 09:14:40;;;;;;;;;;;-1.90;99.90;;;;;;5105179;28;19926;-72
2022/12/12 09:17:06;;;;;;;;;;;-1.90;99.90;;;;;;5097117;28;19999;-71
2022/12/12 09:19:31;;;;;;;;;;;-1.80;99.90;;;;;;5102856;27;19965;-75
2022/12/12 09:21:57;;;;;;;;;;;-1.80;99.90;;;;;;5115033;28;19916;-72
2022/12/12 09:24:24;;;;;;;;;;;-1.80;99.90;;;;;;5105628;28;19966;-75
2022/12/12 09:26:49;;;;;;;;;;;-1.80;99.90;;;;;;5108414;28;20002;-75
2022/12/12 09:29:15;;;;;;;;;;;-1.80;99.90;;;;;;5094169;27;20014;-72
2022/12/12 09:31:41;;;;;;;;;;;-1.80;99.90;;;;;;5112123;28;19994;-75
2022/12/12 09:34:06;;;;;;;;;;;-1.70;99.90;;;;;;5104725;28;20314;-71
2022/12/12 09:36:32;;;;;;;;;;;-1.70;99.90;;;;;;5095512;28;20374;-74
2022/12/12 09:38:57;;;;;;;;;;;-1.70;99.90;;;;;;5102342;28;20589;-74
2022/12/12 09:41:29;;;;;;;;;;;-1.60;99.90;;;;;;5096142;28;19908;-74
2022/12/12 09:43:57;;;;;;;;;;;-1.60;99.90;;;;;;5102079;28;20286;-72
2022/12/12 09:46:34;;;;;;;;;;;-1.60;99.90;;;;;;5107055;28;20157;-71
2022/12/12 09:49:06;;;;;;;;;;;-1.50;99.90;;;;;;5094975;28;19958;-71
2022/12/12 09:51:32;;;;;;;;;;;-1.50;99.90;;;;;;5099539;28;19908;-75
2022/12/12 09:53:57;;;;;;;;;;;-1.40;99.90;;;;;;5102867;28;19942;-72
2022/12/12 09:56:40;;;;;;;;;;;-1.30;99.90;;;;;;5094982;28;19912;-75
2022/12/12 09:59:10;;;;;;;;;;;-1.30;99.90;;;;;;5106083;28;19909;-72
2022/12/12 10:01:38;;;;;;;;;;;-1.30;99.90;;;;;;5094405;28;19916;-71
2022/12/12 10:04:10;;;;;;;;;;;-1.20;99.90;;;;;;5096752;28;20295;-76
2022/12/12 10:06:40;;;;;;;;;;;-1.20;99.90;;;;;;5104118;28;19919;-71
2022/12/12 10:09:24;;;;;;;;;;;-1.20;99.90;;;;;;5098645;28;19935;-71
2022/12/12 10:11:50;;;;;;;;;;;-1.10;99.90;;;;;;5101897;28;19917;-71
2022/12/12 10:14:36;;;;;;;;;;;-1.10;99.90;;;;;;5096516;28;19919;-71
2022/12/12 10:17:07;;;;;;;;;;;-1.10;99.90;;;;;;5098870;28;19908;-75
2022/12/12 10:19:36;;;;;;;;;;;-1.00;99.90;;;;;;5106992;28;19915;-75
2022/12/12 10:22:07;;;;;;;;;;;-1.10;99.90;;;;;;5110178;28;19938;-75
2022/12/12 10:24:35;;;;;;;;;;;-1.00;99.90;;;;;;5106882;28;19912;-75
2022/12/12 10:27:08;;;;;;;;;;;-1.00;99.90;;;;;;5096681;28;20287;-75
2022/12/12 10:29:34;;;;;;;;;;;-0.90;99.90;;;;;;5102514;27;20210;-71
2022/12/12 10:32:07;;;;;;;;;;;-0.80;99.90;;;;;;5100833;27;19915;-75
2022/12/12 10:34:39;;;;;;;;;;;-0.80;99.90;;;;;;5093093;28;19917;-74
2022/12/12 10:37:04;;;;;;;;;;;-0.70;99.90;;;;;;5098220;28;19916;-72
2022/12/12 10:39:47;;;;;;;;;;;-0.70;99.90;;;;;;5097006;28;20028;-74
2022/12/12 10:42:13;;;;;;;;;;;-0.60;99.90;;;;;;5098121;28;19962;-75
2022/12/12 10:44:48;;;;;;;;;;;-0.50;99.90;;;;;;5097019;28;20239;-72
2022/12/12 10:47:13;;;;;;;;;;;-0.50;99.90;;;;;;5106593;28;19985;-74
2022/12/12 10:49:39;;;;;;;;;;;-0.40;99.90;;;;;;5113537;28;20362;-73
2022/12/12 10:52:10;;;;;;;;;;;-0.40;99.90;;;;;;5110634;28;19969;-72
2022/12/12 10:54:40;;;;;;;;;;;-0.30;99.90;;;;;;5111595;28;19915;-72
2022/12/12 10:57:18;;;;;;;;;;;-0.20;99.90;;;;;;5108388;28;20042;-74
2022/12/12 10:59:45;;;;;;;;;;;-0.10;99.90;;;;;;5111120;28;19911;-75
2022/12/12 11:02:29;;;;;;;;;;;0.00;99.90;;;;;;5110272;28;19919;-75
2022/12/12 11:05:13;;;;;;;;;;;0.00;99.90;;;;;;5094446;28;20306;-72
2022/12/12 11:07:40;;;;;;;;;;;0.00;99.90;;;;;;5093229;28;19908;-72
2022/12/12 11:10:19;;;;;;;;;;;0.00;99.90;;;;;;5106502;28;20302;-74
2022/12/12 11:12:44;;;;;;;;;;;0.10;99.90;;;;;;5098826;28;19939;-74
2022/12/12 11:15:15;;;;;;;;;;;0.20;99.90;;;;;;5106953;28;20291;-74
2022/12/12 11:17:41;;;;;;;;;;;0.30;99.90;;;;;;5109127;28;20203;-75
2022/12/12 11:20:13;;;;;;;;;;;0.30;99.90;;;;;;5141677;27;19958;-74
2022/12/12 11:22:38;;;;;;;;;;;0.40;99.90;;;;;;5116037;28;19927;-73
2022/12/12 11:25:04;;;;;;;;;;;0.50;99.90;;;;;;5114450;28;19920;-71
2022/12/12 11:27:34;;;;;;;;;;;0.50;99.90;;;;;;5114528;28;20356;-74
2022/12/12 11:30:04;;;;;;;;;;;0.50;99.90;;;;;;5112763;28;19912;-75
2022/12/12 11:32:36;;;;;;;;;;;0.60;99.90;;;;;;5111268;28;20003;-75
2022/12/12 11:35:03;;;;;;;;;;;0.60;99.90;;;;;;5109628;28;19947;-72
2022/12/12 11:37:35;;;;;;;;;;;0.60;99.90;;;;;;5110591;27;20294;-75
2022/12/12 11:40:01;;;;;;;;;;;0.60;99.90;;;;;;5101843;27;19962;-74
2022/12/12 11:42:28;;;;;;;;;;;0.70;99.90;;;;;;5115912;28;19955;-75
2022/12/12 11:45:18;;;;;;;;;;;0.80;99.90;;;;;;5106514;28;20033;-75
2022/12/12 11:47:44;;;;;;;;;;;0.80;99.90;;;;;;5138247;27;19919;-75
2022/12/12 11:50:20;;;;;;;;;;;0.80;99.90;;;;;;5113050;28;19911;-74
2022/12/12 11:52:47;;;;;;;;;;;0.80;99.90;;;;;;5104747;28;20299;-73
2022/12/12 11:55:14;;;;;;;;;;;0.80;99.90;;;;;;5104919;28;20334;-73
2022/12/12 11:57:39;;;;;;;;;;;0.80;99.90;;;;;;5105300;28;19994;-75
2022/12/12 12:00:10;;;;;;;;;;;0.90;99.90;;;;;;5099133;28;20262;-72
2022/12/12 12:02:54;;;;;;;;;;;1.00;99.90;;;;;;5099909;28;19966;-72
2022/12/12 12:05:26;;;;;;;;;;;1.10;99.90;;;;;;5101150;28;19912;-75
2022/12/12 12:07:57;;;;;;;;;;;1.10;99.90;;;;;;5101196;28;19918;-73
2022/12/12 12:10:22;;;;;;;;;;;1.10;99.90;;;;;;5111748;28;19918;-72
2022/12/12 12:12:54;;;;;;;;;;;1.10;99.90;;;;;;5109420;28;19911;-72
2022/12/12 12:15:29;;;;;;;;;;;1.20;99.90;;;;;;5112261;28;19951;-72
2022/12/12 12:18:15;;;;;;;;;;;1.10;99.90;;;;;;5096283;28;20196;-72
2022/12/12 12:20:49;;;;;;;;;;;1.20;99.90;;;;;;5101789;28;19912;-73
2022/12/12 12:23:25;;;;;;;;;;;1.20;99.90;;;;;;5103281;28;19919;-74
2022/12/12 12:25:53;;;;;;;;;;;1.20;99.90;;;;;;5108799;28;20421;-73
2022/12/12 12:28:19;;;;;;;;;;;1.20;99.90;;;;;;5103078;28;19991;-73
2022/12/12 12:30:44;;;;;;;;;;;1.10;99.90;;;;;;5097920;28;20350;-73
2022/12/12 12:33:28;;;;;;;;;;;1.10;99.90;;;;;;5101369;28;19950;-75
2022/12/12 12:36:03;;;;;;;;;;;1.10;99.90;;;;;;5105336;28;19916;-74
2022/12/12 12:38:38;;;;;;;;;;;1.10;99.90;;;;;;5104600;28;19999;-73
2022/12/12 12:41:12;;;;;;;;;;;1.10;99.90;;;;;;5100280;28;20008;-73
2022/12/12 12:43:41;;;;;;;;;;;1.10;99.90;;;;;;5108661;28;19915;-73
2022/12/12 12:46:09;;;;;;;;;;;1.20;99.90;;;;;;5096358;28;20222;-72
2022/12/12 12:48:38;;;;;;;;;;;1.20;99.90;;;;;;5101570;28;19939;-73
2022/12/12 12:51:17;;;;;;;;;;;1.30;99.90;;;;;;5095513;27;20375;-72
2022/12/12 12:53:47;;;;;;;;;;;1.30;99.90;;;;;;5096739;28;20222;-72
2022/12/12 12:56:15;;;;;;;;;;;1.30;99.90;;;;;;5097037;28;19912;-75
2022/12/12 12:58:46;;;;;;;;;;;1.30;99.90;;;;;;5109729;28;19934;-72
2022/12/12 13:01:15;;;;;;;;;;;1.40;99.90;;;;;;5096188;28;20002;-73
2022/12/12 13:03:44;;;;;;;;;;;1.40;99.90;;;;;;5097107;28;19915;-73
2022/12/12 13:06:17;;;;;;;;;;;1.40;99.90;;;;;;5095710;28;19954;-72
2022/12/12 13:08:52;;;;;;;;;;;1.40;99.90;;;;;;5097515;28;19965;-72
2022/12/12 13:11:24;;;;;;;;;;;1.30;99.90;;;;;;5095777;28;20324;-72
2022/12/12 13:13:50;;;;;;;;;;;1.30;99.90;;;;;;5100202;28;19916;-72
2022/12/12 13:16:20;;;;;;;;;;;1.20;99.90;;;;;;5098599;28;19958;-72
2022/12/12 13:18:48;;;;;;;;;;;1.20;99.90;;;;;;5107217;28;19911;-73
2022/12/12 13:21:17;;;;;;;;;;;1.20;99.90;;;;;;5095310;28;19912;-75
2022/12/12 13:23:48;;;;;;;;;;;1.20;99.90;;;;;;5097215;28;19948;-72
2022/12/12 13:26:20;;;;;;;;;;;1.20;99.90;;;;;;5095626;28;20358;-75
2022/12/12 13:28:48;;;;;;;;;;;1.10;99.90;;;;;;5101741;28;19908;-73
2022/12/12 13:31:20;;;;;;;;;;;1.10;99.90;;;;;;5099283;27;19912;-72
2022/12/12 13:33:47;;;;;;;;;;;1.10;99.90;;;;;;5095437;28;20221;-72
2022/12/12 13:36:19;;;;;;;;;;;1.00;99.90;;;;;;5098316;28;19908;-75
2022/12/12 13:38:46;;;;;;;;;;;1.00;99.90;;;;;;5107883;28;19986;-72
2022/12/12 13:41:12;;;;;;;;;;;1.00;99.90;;;;;;5103962;28;19968;-75
2022/12/12 13:43:37;;;;;;;;;;;0.90;99.90;;;;;;5100374;28;19912;-72
2022/12/12 13:46:27;;;;;;;;;;;1.00;99.90;;;;;;5105943;28;19916;-72
2022/12/12 13:49:02;;;;;;;;;;;1.00;99.90;;;;;;5109110;28;19965;-72
2022/12/12 13:51:30;;;;;;;;;;;1.00;99.90;;;;;;5098972;28;20068;-73
2022/12/12 13:54:05;;;;;;;;;;;1.00;99.90;;;;;;5112947;28;19931;-72
2022/12/12 13:56:38;;;;;;;;;;;1.00;99.90;;;;;;5114234;28;19991;-73
2022/12/12 13:59:24;;;;;;;;;;;1.00;99.90;;;;;;5113934;27;19912;-75
2022/12/12 14:01:58;;;;;;;;;;;1.00;99.90;;;;;;5093410;28;20222;-75
2022/12/12 14:04:28;;;;;;;;;;;1.00;99.90;;;;;;5098650;28;19912;-75
2022/12/12 14:07:06;;;;;;;;;;;1.00;99.90;;;;;;5097931;28;19919;-75
2022/12/12 14:09:33;;;;;;;;;;;1.00;99.90;;;;;;5100784;28;19919;-74
2022/12/12 14:12:06;;;;;;;;;;;1.00;99.90;;;;;;5097154;27;19950;-75
2022/12/12 14:14:33;;;;;;;;;;;1.00;99.90;;;;;;5094586;28;19912;-75
2022/12/12 14:17:00;;;;;;;;;;;0.90;99.90;;;;;;5100700;28;19908;-73
2022/12/12 14:19:27;;;;;;;;;;;0.90;99.90;;;;;;5097850;28;20416;-74
2022/12/12 14:21:53;;;;;;;;;;;0.90;99.90;;;;;;5096081;28;20211;-73
2022/12/12 14:24:31;;;;;;;;;;;0.90;99.90;;;;;;5094976;28;19908;-72
2022/12/12 14:26:57;;;;;;;;;;;0.80;99.90;;;;;;5099551;28;19991;-73
2022/12/12 14:29:25;;;;;;;;;;;0.80;99.90;;;;;;5102411;28;19919;-72
2022/12/12 14:31:56;;;;;;;;;;;0.70;99.90;;;;;;5103126;28;19908;-72
2022/12/12 14:34:28;;;;;;;;;;;0.70;99.90;;;;;;5098239;28;19912;-73
2022/12/12 14:36:59;;;;;;;;;;;0.60;99.90;;;;;;5098232;28;19961;-72
2022/12/12 14:39:37;;;;;;;;;;;0.60;99.90;;;;;;5097535;28;19937;-73
2022/12/12 14:42:04;;;;;;;;;;;0.60;99.90;;;;;;5099756;28;19909;-74
2022/12/12 14:44:30;;;;;;;;;;;0.50;99.90;;;;;;5099097;28;19926;-72
2022/12/12 14:47:05;;;;;;;;;;;0.40;99.90;;;;;;5111497;28;19911;-72